createdAt,value
2022-08-19T00:00:20.508Z,19.35
2022-08-19T00:01:30.382Z,19.22
2022-08-19T00:02:20.457Z,19.35
2022-08-19T00:03:20.443Z,19.26
2022-08-19T00:04:20.457Z,19.26
2022-08-19T00:05:20.430Z,19.30
2022-08-19T00:06:20.401Z,19.22
2022-08-19T00:07:20.377Z,19.24
2022-08-19T00:08:20.361Z,19.23
2022-08-19T00:09:20.343Z,19.26
2022-08-19T00:10:20.343Z,19.22
2022-08-19T00:11:25.458Z,19.23
2022-08-19T00:12:20.317Z,19.23
2022-08-19T00:13:20.276Z,19.22
2022-08-19T00:14:20.261Z,19.20
2022-08-19T00:15:20.243Z,19.32
2022-08-19T00:16:20.233Z,19.27
2022-08-19T00:17:20.227Z,19.24
2022-08-19T00:18:20.193Z,19.24
2022-08-19T00:19:20.172Z,19.27
2022-08-19T00:20:20.153Z,19.27
2022-08-19T00:21:20.159Z,19.24
2022-08-19T00:22:20.121Z,19.27
2022-08-19T00:23:20.106Z,19.20
2022-08-19T00:24:20.086Z,19.19
2022-08-19T00:25:29.839Z,19.22
2022-08-19T00:26:20.056Z,19.19
2022-08-19T00:27:25.996Z,19.19
2022-08-19T00:28:20.020Z,19.16
2022-08-19T00:29:20.003Z,19.19
2022-08-19T00:30:19.987Z,19.23
2022-08-19T00:31:19.969Z,19.23
2022-08-19T00:32:19.962Z,19.24
2022-08-19T00:33:19.931Z,19.20
2022-08-19T00:34:19.912Z,19.22
2022-08-19T00:35:19.902Z,19.19
2022-08-19T00:36:19.879Z,19.13
2022-08-19T00:37:19.886Z,19.13
2022-08-19T00:38:35.163Z,19.09
2022-08-19T00:39:19.834Z,18.97
2022-08-19T00:40:19.813Z,19.01
2022-08-19T00:41:19.795Z,19.01
2022-08-19T00:42:19.778Z,18.93
2022-08-19T00:43:19.779Z,18.83
2022-08-19T00:44:19.752Z,18.93
2022-08-19T00:45:19.727Z,18.91
2022-08-19T00:46:19.712Z,18.85
2022-08-19T00:47:19.699Z,18.91
2022-08-19T00:48:19.678Z,18.88
2022-08-19T00:49:19.677Z,18.89
2022-08-19T00:50:19.646Z,18.86
2022-08-19T00:51:19.629Z,18.83
2022-08-19T00:52:19.614Z,18.89
2022-08-19T00:53:19.608Z,18.91
2022-08-19T00:54:19.587Z,18.88
2022-08-19T00:55:19.576Z,18.82
2022-08-19T00:56:19.546Z,18.82
2022-08-19T00:57:19.519Z,18.81
2022-08-19T00:58:19.509Z,18.83
2022-08-19T01:00:00.906Z,18.70
2022-08-19T01:00:19.492Z,18.71
2022-08-19T01:01:19.463Z,18.68
2022-08-19T01:02:19.437Z,18.64
2022-08-19T01:03:19.419Z,18.74
2022-08-19T01:04:19.403Z,18.68
2022-08-19T01:05:19.401Z,18.63
2022-08-19T01:06:20.757Z,18.60
2022-08-19T01:07:19.553Z,18.57
2022-08-19T01:08:19.338Z,18.57
2022-08-19T01:09:19.322Z,18.56
2022-08-19T01:10:19.328Z,18.51
2022-08-19T01:11:19.290Z,18.54
2022-08-19T01:12:19.264Z,18.52
2022-08-19T01:13:19.247Z,18.46
2022-08-19T01:14:19.228Z,18.56
2022-08-19T01:15:19.215Z,18.51
2022-08-19T01:16:19.224Z,18.51
2022-08-19T01:17:19.175Z,18.52
2022-08-19T01:18:19.159Z,18.57
2022-08-19T01:19:19.150Z,18.52
2022-08-19T01:20:19.124Z,18.54
2022-08-19T01:21:19.216Z,18.58
2022-08-19T01:22:24.494Z,18.58
2022-08-19T01:23:19.074Z,18.60
2022-08-19T01:24:19.053Z,18.58
2022-08-19T01:25:19.038Z,18.56
2022-08-19T01:26:19.019Z,18.52
2022-08-19T01:27:19.068Z,18.52
2022-08-19T01:28:18.985Z,18.51
2022-08-19T01:29:18.966Z,18.48
2022-08-19T01:30:18.949Z,18.46
2022-08-19T01:31:27.422Z,18.43
2022-08-19T01:32:32.356Z,18.51
2022-08-19T01:33:18.914Z,18.43
2022-08-19T01:34:18.881Z,18.45
2022-08-19T01:35:18.868Z,18.46
2022-08-19T01:36:18.849Z,18.49
2022-08-19T01:37:24.861Z,18.48
2022-08-19T01:38:18.832Z,18.48
2022-08-19T01:39:18.801Z,18.49
2022-08-19T01:40:18.823Z,18.51
2022-08-19T01:41:18.760Z,18.49
2022-08-19T01:42:18.760Z,18.52
2022-08-19T01:43:18.746Z,18.43
2022-08-19T01:44:19.400Z,18.46
2022-08-19T01:45:18.689Z,18.39
2022-08-19T01:46:22.105Z,18.39
2022-08-19T01:47:18.655Z,18.41
2022-08-19T01:48:18.663Z,18.36
2022-08-19T01:49:18.618Z,18.38
2022-08-19T01:50:18.611Z,18.34
2022-08-19T01:51:18.584Z,18.38
2022-08-19T01:52:18.567Z,18.38
2022-08-19T01:53:18.548Z,18.28
2022-08-19T01:54:23.339Z,18.33
2022-08-19T01:55:18.518Z,18.26
2022-08-19T01:56:18.499Z,18.26
2022-08-19T01:57:18.483Z,18.26
2022-08-19T01:58:18.467Z,18.33
2022-08-19T01:59:18.460Z,18.30
2022-08-19T02:00:18.447Z,18.28
2022-08-19T02:01:18.468Z,18.28
2022-08-19T02:02:18.393Z,18.21
2022-08-19T02:03:18.375Z,18.31
2022-08-19T02:04:18.362Z,18.20
2022-08-19T02:05:18.358Z,18.31
2022-08-19T02:06:18.326Z,18.20
2022-08-19T02:07:18.310Z,18.27
2022-08-19T02:08:18.290Z,18.18
2022-08-19T02:09:18.269Z,18.23
2022-08-19T02:10:18.280Z,18.18
2022-08-19T02:11:18.236Z,18.28
2022-08-19T02:12:18.220Z,18.31
2022-08-19T02:13:21.076Z,18.20
2022-08-19T02:14:18.182Z,18.31
2022-08-19T02:15:18.165Z,18.21
2022-08-19T02:16:18.165Z,18.34
2022-08-19T02:17:18.140Z,18.34
2022-08-19T02:18:18.111Z,18.30
2022-08-19T02:19:18.117Z,18.21
2022-08-19T02:20:18.089Z,18.23
2022-08-19T02:21:18.073Z,18.31
2022-08-19T02:22:18.038Z,18.18
2022-08-19T02:23:18.021Z,18.18
2022-08-19T02:24:18.014Z,18.15
2022-08-19T02:25:17.989Z,18.21
2022-08-19T02:26:17.969Z,18.24
2022-08-19T02:27:17.972Z,18.23
2022-08-19T02:28:18.904Z,18.24
2022-08-19T02:29:17.920Z,18.12
2022-08-19T02:30:17.905Z,18.17
2022-08-19T02:31:17.900Z,18.20
2022-08-19T02:32:17.868Z,18.21
2022-08-19T02:33:17.865Z,18.21
2022-08-19T02:34:17.824Z,18.17
2022-08-19T02:35:17.813Z,18.21
2022-08-19T02:36:20.670Z,18.15
2022-08-19T02:37:17.802Z,18.13
2022-08-19T02:38:17.773Z,18.08
2022-08-19T02:39:17.742Z,18.06
2022-08-19T02:40:17.722Z,18.08
2022-08-19T02:41:17.704Z,18.01
2022-08-19T02:42:17.704Z,18.08
2022-08-19T02:43:17.670Z,18.11
2022-08-19T02:44:29.448Z,18.01
2022-08-19T02:45:17.633Z,18.02
2022-08-19T02:46:17.616Z,18.05
2022-08-19T02:47:17.598Z,18.03
2022-08-19T02:48:21.457Z,18.02
2022-08-19T02:49:17.713Z,17.99
2022-08-19T02:50:17.544Z,18.02
2022-08-19T02:51:17.526Z,17.96
2022-08-19T02:52:17.507Z,17.97
2022-08-19T02:53:17.509Z,17.91
2022-08-19T02:54:17.477Z,17.90
2022-08-19T02:55:17.455Z,17.84
2022-08-19T02:56:17.434Z,17.88
2022-08-19T02:57:17.415Z,17.88
2022-08-19T02:58:17.400Z,17.87
2022-08-19T02:59:17.415Z,17.81
2022-08-19T03:00:17.366Z,17.79
2022-08-19T03:01:17.378Z,17.76
2022-08-19T03:02:17.331Z,17.84
2022-08-19T03:03:17.308Z,17.84
2022-08-19T03:04:17.300Z,17.88
2022-08-19T03:05:17.293Z,17.88
2022-08-19T03:06:17.274Z,17.86
2022-08-19T03:07:17.244Z,17.84
2022-08-19T03:08:17.230Z,17.87
2022-08-19T03:09:17.208Z,17.78
2022-08-19T03:10:17.186Z,17.87
2022-08-19T03:11:17.190Z,17.91
2022-08-19T03:12:17.161Z,17.91
2022-08-19T03:13:17.138Z,18.01
2022-08-19T03:14:17.115Z,17.94
2022-08-19T03:15:17.115Z,17.93
2022-08-19T03:16:17.105Z,17.99
2022-08-19T03:17:17.062Z,18.02
2022-08-19T03:18:17.990Z,17.96
2022-08-19T03:19:17.045Z,17.97
2022-08-19T03:20:17.010Z,18.01
2022-08-19T03:21:16.996Z,18.05
2022-08-19T03:22:16.996Z,18.01
2022-08-19T03:23:16.958Z,18.05
2022-08-19T03:24:16.937Z,18.02
2022-08-19T03:25:16.941Z,18.03
2022-08-19T03:26:17.311Z,18.05
2022-08-19T03:27:16.890Z,18.05
2022-08-19T03:28:16.869Z,18.06
2022-08-19T03:29:22.211Z,17.99
2022-08-19T03:30:16.850Z,18.06
2022-08-19T03:31:44.253Z,18.06
2022-08-19T03:32:32.440Z,18.13
2022-08-19T03:33:18.081Z,18.02
2022-08-19T03:34:16.767Z,18.11
2022-08-19T03:35:16.764Z,18.08
2022-08-19T03:36:16.739Z,18.08
2022-08-19T03:37:16.708Z,18.15
2022-08-19T03:38:16.693Z,18.12
2022-08-19T03:39:16.676Z,18.13
2022-08-19T03:40:16.804Z,18.12
2022-08-19T03:41:16.641Z,18.13
2022-08-19T03:42:31.844Z,18.23
2022-08-19T03:43:16.603Z,18.23
2022-08-19T03:44:18.093Z,18.13
2022-08-19T03:45:16.580Z,18.20
2022-08-19T03:46:16.552Z,18.12
2022-08-19T03:47:16.544Z,18.18
2022-08-19T03:48:16.524Z,18.21
2022-08-19T03:49:18.485Z,18.23
2022-08-19T03:50:16.503Z,18.23
2022-08-19T03:51:16.463Z,18.13
2022-08-19T03:52:16.454Z,18.09
2022-08-19T03:53:16.427Z,18.08
2022-08-19T03:54:16.410Z,18.09
2022-08-19T03:55:16.409Z,18.12
2022-08-19T03:56:16.374Z,18.05
2022-08-19T03:57:16.364Z,18.09
2022-08-19T03:58:16.337Z,18.06
2022-08-19T03:59:16.321Z,18.06
2022-08-19T04:00:16.322Z,18.01
2022-08-19T04:01:16.334Z,18.06
2022-08-19T04:02:16.274Z,18.02
2022-08-19T04:03:16.262Z,18.02
2022-08-19T04:04:16.231Z,18.11
2022-08-19T04:05:16.210Z,18.05
2022-08-19T04:06:16.214Z,17.97
2022-08-19T04:07:16.175Z,18.01
2022-08-19T04:08:16.158Z,17.99
2022-08-19T04:09:16.141Z,18.06
2022-08-19T04:10:16.140Z,18.08
2022-08-19T04:11:16.132Z,18.01
2022-08-19T04:12:16.089Z,18.06
2022-08-19T04:13:16.086Z,18.02
2022-08-19T04:14:16.052Z,18.09
2022-08-19T04:15:16.041Z,18.06
2022-08-19T04:16:16.022Z,18.06
2022-08-19T04:17:16.018Z,17.99
2022-08-19T04:18:15.992Z,18.02
2022-08-19T04:19:15.988Z,17.96
2022-08-19T04:20:15.943Z,17.94
2022-08-19T04:21:15.927Z,17.99
2022-08-19T04:22:15.935Z,17.93
2022-08-19T04:23:15.898Z,17.88
2022-08-19T04:24:15.880Z,17.86
2022-08-19T04:25:15.881Z,17.84
2022-08-19T04:26:15.841Z,17.78
2022-08-19T04:27:15.821Z,17.81
2022-08-19T04:28:15.812Z,17.84
2022-08-19T04:29:15.788Z,17.75
2022-08-19T04:30:15.770Z,17.68
2022-08-19T04:31:15.776Z,17.72
2022-08-19T04:32:15.731Z,17.71
2022-08-19T04:33:15.715Z,17.71
2022-08-19T04:34:15.710Z,17.72
2022-08-19T04:35:17.896Z,17.78
2022-08-19T04:36:15.661Z,17.62
2022-08-19T04:37:15.661Z,17.63
2022-08-19T04:38:15.627Z,17.66
2022-08-19T04:39:15.604Z,17.69
2022-08-19T04:40:15.597Z,17.59
2022-08-19T04:41:15.567Z,17.62
2022-08-19T04:42:15.575Z,17.62
2022-08-19T04:43:15.544Z,17.69
2022-08-19T04:44:15.540Z,17.65
2022-08-19T04:45:15.508Z,17.65
2022-08-19T04:46:39.261Z,17.66
2022-08-19T04:47:15.484Z,17.57
2022-08-19T04:48:26.207Z,17.69
2022-08-19T04:49:15.451Z,17.57
2022-08-19T04:50:15.412Z,17.65
2022-08-19T04:51:15.394Z,17.63
2022-08-19T04:52:15.375Z,17.59
2022-08-19T04:53:15.358Z,17.71
2022-08-19T04:54:15.334Z,17.63
2022-08-19T04:55:15.351Z,17.69
2022-08-19T04:56:15.301Z,17.69
2022-08-19T04:57:15.286Z,17.72
2022-08-19T04:58:15.294Z,17.72
2022-08-19T04:59:15.265Z,17.73
2022-08-19T05:00:15.232Z,17.79
2022-08-19T05:01:15.229Z,17.75
2022-08-19T05:02:15.202Z,17.87
2022-08-19T05:03:15.181Z,17.84
2022-08-19T05:04:15.170Z,17.84
2022-08-19T05:05:15.144Z,17.84
2022-08-19T05:06:15.139Z,17.88
2022-08-19T05:07:15.110Z,17.93
2022-08-19T05:08:15.300Z,17.93
2022-08-19T05:09:15.069Z,17.91
2022-08-19T05:10:15.051Z,17.99
2022-08-19T05:11:15.047Z,17.99
2022-08-19T05:12:15.022Z,17.94
2022-08-19T05:13:15.035Z,17.96
2022-08-19T05:14:15.006Z,18.05
2022-08-19T05:15:14.975Z,18.08
2022-08-19T05:16:14.941Z,18.06
2022-08-19T05:17:33.480Z,18.09
2022-08-19T05:18:14.912Z,17.99
2022-08-19T05:19:14.906Z,17.99
2022-08-19T05:20:14.894Z,18.11
2022-08-19T05:21:14.885Z,18.08
2022-08-19T05:22:14.847Z,18.13
2022-08-19T05:23:22.044Z,18.08
2022-08-19T05:24:14.808Z,18.03
2022-08-19T05:25:14.820Z,18.06
2022-08-19T05:26:14.770Z,18.09
2022-08-19T05:27:14.752Z,18.17
2022-08-19T05:28:14.759Z,18.12
2022-08-19T05:29:14.738Z,18.17
2022-08-19T05:30:14.696Z,18.23
2022-08-19T05:31:14.683Z,18.15
2022-08-19T05:32:14.686Z,18.21
2022-08-19T05:33:14.635Z,18.18
2022-08-19T05:34:20.155Z,18.12
2022-08-19T05:35:14.612Z,18.21
2022-08-19T05:36:14.611Z,18.23
2022-08-19T05:37:14.589Z,18.21
2022-08-19T05:38:14.552Z,18.15
2022-08-19T05:39:14.532Z,18.20
2022-08-19T05:40:14.562Z,18.24
2022-08-19T05:41:14.543Z,18.31
2022-08-19T05:42:14.478Z,18.33
2022-08-19T05:43:14.469Z,18.36
2022-08-19T05:44:14.463Z,18.33
2022-08-19T05:45:14.441Z,18.31
2022-08-19T05:46:14.411Z,18.41
2022-08-19T05:47:14.419Z,18.38
2022-08-19T05:48:14.391Z,18.48
2022-08-19T05:49:14.369Z,18.45
2022-08-19T05:50:14.337Z,18.48
2022-08-19T05:51:14.319Z,18.54
2022-08-19T05:52:14.327Z,18.52
2022-08-19T05:53:14.296Z,18.60
2022-08-19T05:54:14.261Z,18.57
2022-08-19T05:55:14.249Z,18.63
2022-08-19T05:56:14.244Z,18.57
2022-08-19T05:57:14.213Z,18.57
2022-08-19T05:58:14.226Z,18.49
2022-08-19T05:59:14.179Z,18.67
2022-08-19T06:00:14.177Z,18.75
2022-08-19T06:01:14.164Z,18.67
2022-08-19T06:02:14.172Z,18.79
2022-08-19T06:03:14.136Z,18.85
2022-08-19T06:04:14.099Z,18.79
2022-08-19T06:05:14.103Z,18.83
2022-08-19T06:06:14.057Z,18.83
2022-08-19T06:07:14.048Z,18.82
2022-08-19T06:08:14.016Z,18.93
2022-08-19T06:09:14.004Z,18.81
2022-08-19T06:10:13.999Z,18.86
2022-08-19T06:11:13.980Z,18.96
2022-08-19T06:12:14.026Z,19.05
2022-08-19T06:13:13.925Z,18.96
2022-08-19T06:14:16.770Z,19.07
2022-08-19T06:15:13.892Z,19.09
2022-08-19T06:16:13.900Z,19.12
2022-08-19T06:17:13.882Z,19.16
2022-08-19T06:18:13.865Z,19.22
2022-08-19T06:19:13.821Z,19.24
2022-08-19T06:20:13.807Z,19.22
2022-08-19T06:21:13.805Z,19.23
2022-08-19T06:22:13.798Z,19.26
2022-08-19T06:23:17.115Z,19.27
2022-08-19T06:24:13.768Z,19.34
2022-08-19T06:25:13.738Z,19.32
2022-08-19T06:26:13.704Z,19.34
2022-08-19T06:27:13.716Z,19.39
2022-08-19T06:28:15.418Z,19.37
2022-08-19T06:29:23.842Z,19.41
2022-08-19T06:30:13.638Z,19.42
2022-08-19T06:31:13.621Z,19.37
2022-08-19T06:32:13.601Z,19.56
2022-08-19T06:33:13.699Z,19.50
2022-08-19T06:34:13.586Z,19.57
2022-08-19T06:35:13.572Z,19.57
2022-08-19T06:36:13.552Z,19.53
2022-08-19T06:37:13.512Z,19.53
2022-08-19T06:38:13.493Z,19.64
2022-08-19T06:39:13.481Z,19.67
2022-08-19T06:40:13.567Z,19.75
2022-08-19T06:41:13.446Z,19.74
2022-08-19T06:42:13.455Z,19.87
2022-08-19T06:43:13.441Z,19.90
2022-08-19T06:44:13.439Z,19.97
2022-08-19T06:45:13.446Z,19.93
2022-08-19T06:46:14.702Z,20.07
2022-08-19T06:47:14.736Z,20.02
2022-08-19T06:48:13.342Z,20.09
2022-08-19T06:49:13.311Z,20.11
2022-08-19T06:50:13.357Z,20.15
2022-08-19T06:51:13.292Z,20.18
2022-08-19T06:52:13.912Z,20.18
2022-08-19T06:53:13.281Z,20.29
2022-08-19T06:54:19.429Z,20.34
2022-08-19T06:55:13.202Z,20.34
2022-08-19T06:56:13.197Z,20.32
2022-08-19T06:57:13.167Z,20.37
2022-08-19T06:58:13.153Z,20.41
2022-08-19T06:59:13.135Z,20.33
2022-08-19T07:00:13.257Z,20.39
2022-08-19T07:01:13.120Z,20.37
2022-08-19T07:02:13.143Z,20.33
2022-08-19T07:03:13.613Z,20.44
2022-08-19T07:04:13.056Z,20.46
2022-08-19T07:05:13.039Z,20.53
2022-08-19T07:06:21.350Z,20.55
2022-08-19T07:07:20.220Z,20.52
2022-08-19T07:08:13.029Z,20.56
2022-08-19T07:09:12.996Z,20.63
2022-08-19T07:10:12.941Z,20.67
2022-08-19T07:11:12.931Z,20.67
2022-08-19T07:12:12.912Z,20.73
2022-08-19T07:13:12.903Z,20.67
2022-08-19T07:14:19.031Z,20.82
2022-08-19T07:15:12.863Z,20.73
2022-08-19T07:16:12.842Z,20.92
2022-08-19T07:17:12.844Z,21.08
2022-08-19T07:18:12.823Z,21.07
2022-08-19T07:19:15.564Z,21.19
2022-08-19T07:20:12.796Z,21.28
2022-08-19T07:21:12.766Z,21.29
2022-08-19T07:22:13.182Z,21.30
2022-08-19T07:23:16.179Z,21.29
2022-08-19T07:24:12.713Z,21.41
2022-08-19T07:25:12.740Z,21.41
2022-08-19T07:26:12.680Z,21.41
2022-08-19T07:27:15.074Z,21.53
2022-08-19T07:28:20.185Z,21.50
2022-08-19T07:29:12.637Z,21.44
2022-08-19T07:30:12.624Z,21.59
2022-08-19T07:31:12.622Z,21.75
2022-08-19T07:32:13.604Z,21.75
2022-08-19T07:33:12.560Z,21.78
2022-08-19T07:34:12.575Z,21.91
2022-08-19T07:35:12.565Z,21.98
2022-08-19T07:36:12.513Z,21.98
2022-08-19T07:37:12.503Z,21.97
2022-08-19T07:38:12.487Z,22.11
2022-08-19T07:39:12.467Z,22.09
2022-08-19T07:40:12.569Z,22.06
2022-08-19T07:41:12.451Z,21.96
2022-08-19T07:42:13.426Z,22.00
2022-08-19T07:43:16.939Z,21.91
2022-08-19T07:44:12.457Z,21.96
2022-08-19T07:45:12.390Z,22.01
2022-08-19T07:47:49.677Z,21.93
2022-08-19T07:48:12.317Z,21.98
2022-08-19T07:49:12.538Z,21.94
2022-08-19T07:50:12.406Z,22.01
2022-08-19T07:51:12.289Z,22.09
2022-08-19T07:52:12.263Z,22.06
2022-08-19T07:53:12.241Z,22.11
2022-08-19T07:54:12.230Z,22.15
2022-08-19T07:55:40.741Z,22.21
2022-08-19T07:56:12.223Z,22.13
2022-08-19T07:57:12.179Z,22.21
2022-08-19T07:58:12.155Z,22.16
2022-08-19T07:59:12.145Z,22.22
2022-08-19T08:00:12.124Z,22.33
2022-08-19T08:01:12.123Z,22.44
2022-08-19T08:02:12.088Z,22.46
2022-08-19T08:03:12.103Z,22.51
2022-08-19T08:04:12.060Z,22.71
2022-08-19T08:05:12.043Z,22.76
2022-08-19T08:06:12.059Z,22.83
2022-08-19T08:07:12.030Z,22.68
2022-08-19T08:08:11.991Z,22.68
2022-08-19T08:09:12.001Z,22.66
2022-08-19T08:10:20.780Z,22.48
2022-08-19T08:11:11.946Z,22.48
2022-08-19T08:12:32.868Z,22.49
2022-08-19T08:13:12.175Z,22.40
2022-08-19T08:14:28.926Z,22.33
2022-08-19T08:15:12.687Z,22.44
2022-08-19T08:16:14.351Z,22.55
2022-08-19T08:17:11.858Z,22.74
2022-08-19T08:18:11.850Z,22.77
2022-08-19T08:19:20.316Z,22.71
2022-08-19T08:20:11.803Z,22.68
2022-08-19T08:21:11.785Z,22.70
2022-08-19T08:22:11.809Z,22.74
2022-08-19T08:23:11.791Z,22.83
2022-08-19T08:24:11.742Z,22.78
2022-08-19T08:25:11.744Z,22.70
2022-08-19T08:26:11.713Z,22.55
2022-08-19T08:27:11.698Z,22.46
2022-08-19T08:28:17.568Z,22.34
2022-08-19T08:29:12.718Z,22.46
2022-08-19T08:30:15.511Z,22.34
2022-08-19T08:31:11.633Z,22.37
2022-08-19T08:32:14.110Z,22.46
2022-08-19T08:33:11.705Z,22.52
2022-08-19T08:34:11.586Z,22.48
2022-08-19T08:35:11.568Z,22.66
2022-08-19T08:36:11.592Z,22.67
2022-08-19T08:37:11.542Z,22.77
2022-08-19T08:38:11.522Z,22.81
2022-08-19T08:39:11.534Z,23.01
2022-08-19T08:40:13.313Z,23.15
2022-08-19T08:41:11.479Z,23.22
2022-08-19T08:42:17.539Z,23.34
2022-08-19T08:43:11.781Z,23.29
2022-08-19T08:44:11.450Z,23.29
2022-08-19T08:45:11.443Z,23.29
2022-08-19T08:46:12.419Z,23.25
2022-08-19T08:47:11.393Z,23.25
2022-08-19T08:48:21.876Z,23.04
2022-08-19T08:49:11.466Z,23.01
2022-08-19T08:50:11.348Z,22.98
2022-08-19T08:51:11.337Z,23.01
2022-08-19T08:52:11.324Z,23.08
2022-08-19T08:53:11.302Z,23.28
2022-08-19T08:54:11.295Z,23.25
2022-08-19T08:55:11.295Z,23.39
2022-08-19T08:56:11.250Z,23.25
2022-08-19T08:57:11.229Z,23.25
2022-08-19T08:58:11.226Z,23.36
2022-08-19T08:59:11.210Z,23.33
2022-08-19T09:00:15.523Z,23.41
2022-08-19T09:01:11.250Z,23.44
2022-08-19T09:02:11.167Z,23.41
2022-08-19T09:03:11.146Z,23.48
2022-08-19T09:04:11.129Z,23.55
2022-08-19T09:05:11.143Z,23.64
2022-08-19T09:06:12.070Z,23.71
2022-08-19T09:07:18.137Z,23.79
2022-08-19T09:08:12.163Z,23.88
2022-08-19T09:09:11.645Z,23.85
2022-08-19T09:10:11.069Z,23.73
2022-08-19T09:11:11.032Z,23.54
2022-08-19T09:12:11.695Z,23.49
2022-08-19T09:13:10.995Z,23.48
2022-08-19T09:14:29.209Z,23.67
2022-08-19T09:15:10.992Z,23.73
2022-08-19T09:16:10.953Z,23.89
2022-08-19T09:17:10.944Z,23.86
2022-08-19T09:18:15.179Z,23.88
2022-08-19T09:19:10.903Z,24.00
2022-08-19T09:20:10.905Z,24.21
2022-08-19T09:21:10.893Z,24.36
2022-08-19T09:22:10.865Z,24.58
2022-08-19T09:23:10.842Z,24.78
2022-08-19T09:24:10.827Z,24.78
2022-08-19T09:25:10.815Z,24.44
2022-08-19T09:26:10.819Z,24.37
2022-08-19T09:27:18.250Z,24.47
2022-08-19T09:28:22.223Z,24.68
2022-08-19T09:29:10.789Z,24.99
2022-08-19T09:30:10.765Z,25.22
2022-08-19T09:31:11.380Z,25.40
2022-08-19T09:32:26.070Z,25.55
2022-08-19T09:33:10.714Z,25.92
2022-08-19T09:34:21.645Z,26.34
2022-08-19T09:35:10.672Z,26.65
2022-08-19T09:36:10.654Z,27.01
2022-08-19T09:37:10.644Z,27.04
2022-08-19T09:38:10.643Z,27.07
2022-08-19T09:39:16.450Z,26.94
2022-08-19T09:40:11.845Z,26.61
2022-08-19T09:41:10.590Z,26.52
2022-08-19T09:42:16.114Z,26.48
2022-08-19T09:43:13.314Z,26.52
2022-08-19T09:44:10.544Z,26.89
2022-08-19T09:45:10.683Z,26.98
2022-08-19T09:46:10.547Z,27.22
2022-08-19T09:47:10.507Z,27.34
2022-08-19T09:48:11.834Z,27.40
2022-08-19T09:49:10.478Z,26.94
2022-08-19T09:50:10.467Z,26.95
2022-08-19T09:51:12.063Z,26.71
2022-08-19T09:52:10.447Z,26.45
2022-08-19T09:53:10.453Z,26.07
2022-08-19T09:54:11.267Z,25.71
2022-08-19T09:55:10.432Z,25.68
2022-08-19T09:56:10.411Z,25.81
2022-08-19T09:57:10.379Z,26.04
2022-08-19T09:58:10.387Z,26.34
2022-08-19T09:59:10.354Z,26.52
2022-08-19T10:00:10.350Z,26.58
2022-08-19T10:01:10.462Z,26.58
2022-08-19T10:02:10.990Z,26.67
2022-08-19T10:03:10.308Z,27.10
2022-08-19T10:04:14.766Z,27.12
2022-08-19T10:05:10.289Z,27.08
2022-08-19T10:06:15.126Z,27.04
2022-08-19T10:07:10.263Z,27.26
2022-08-19T10:08:13.847Z,27.49
2022-08-19T10:09:10.238Z,27.70
2022-08-19T10:10:10.254Z,28.05
2022-08-19T10:11:28.497Z,28.17
2022-08-19T10:12:11.240Z,28.42
2022-08-19T10:13:10.238Z,28.53
2022-08-19T10:14:10.211Z,28.54
2022-08-19T10:15:10.176Z,28.43
2022-08-19T10:16:10.206Z,28.37
2022-08-19T10:17:17.650Z,28.24
2022-08-19T10:18:10.163Z,28.46
2022-08-19T10:19:10.142Z,28.34
2022-08-19T10:20:10.122Z,28.35
2022-08-19T10:21:11.649Z,28.30
2022-08-19T10:22:12.327Z,28.40
2022-08-19T10:23:10.102Z,28.25
2022-08-19T10:24:10.083Z,28.53
2022-08-19T10:25:10.079Z,28.49
2022-08-19T10:26:10.066Z,28.74
2022-08-19T10:27:10.083Z,28.65
2022-08-19T10:28:10.697Z,28.54
2022-08-19T10:29:10.046Z,28.17
2022-08-19T10:30:10.194Z,28.19
2022-08-19T10:31:10.022Z,28.25
2022-08-19T10:32:10.104Z,28.32
2022-08-19T10:33:11.312Z,28.42
2022-08-19T10:34:10.118Z,28.49
2022-08-19T10:35:09.984Z,28.57
2022-08-19T10:36:09.966Z,28.52
2022-08-19T10:37:10.788Z,28.35
2022-08-19T10:38:10.233Z,28.43
2022-08-19T10:39:09.947Z,28.38
2022-08-19T10:40:09.965Z,28.01
2022-08-19T10:41:09.933Z,27.61
2022-08-19T10:42:09.911Z,27.01
2022-08-19T10:43:09.904Z,26.21
2022-08-19T10:44:09.927Z,25.96
2022-08-19T10:45:09.877Z,26.08
2022-08-19T10:46:13.863Z,26.48
2022-08-19T10:47:17.486Z,26.68
2022-08-19T10:48:12.239Z,26.79
2022-08-19T10:49:09.857Z,27.05
2022-08-19T10:50:11.768Z,27.34
2022-08-19T10:51:09.839Z,27.35
2022-08-19T10:52:10.304Z,27.37
2022-08-19T10:53:09.966Z,27.12
2022-08-19T10:54:12.419Z,26.93
2022-08-19T10:55:09.801Z,26.85
2022-08-19T10:56:09.767Z,26.58
2022-08-19T10:57:09.757Z,26.49
2022-08-19T10:58:10.063Z,26.41
2022-08-19T10:59:09.744Z,26.28
2022-08-19T11:00:09.722Z,26.51
2022-08-19T11:01:09.783Z,26.79
2022-08-19T11:02:09.698Z,27.08
2022-08-19T11:03:09.799Z,27.35
2022-08-19T11:04:09.678Z,27.69
2022-08-19T11:05:12.701Z,27.87
2022-08-19T11:06:09.671Z,28.01
2022-08-19T11:07:09.643Z,28.15
2022-08-19T11:08:22.870Z,27.94
2022-08-19T11:09:09.621Z,27.70
2022-08-19T11:10:13.006Z,27.54
2022-08-19T11:11:09.616Z,27.50
2022-08-19T11:12:09.588Z,27.45
2022-08-19T11:13:09.596Z,27.37
2022-08-19T11:14:09.567Z,27.31
2022-08-19T11:15:10.426Z,27.50
2022-08-19T11:16:09.580Z,27.79
2022-08-19T11:17:09.557Z,27.70
2022-08-19T11:18:13.398Z,27.66
2022-08-19T11:19:09.513Z,27.52
2022-08-19T11:20:09.501Z,27.26
2022-08-19T11:21:09.491Z,27.17
2022-08-19T11:22:09.484Z,27.08
2022-08-19T11:23:09.483Z,26.95
2022-08-19T11:24:09.451Z,26.95
2022-08-19T11:25:09.447Z,26.73
2022-08-19T11:26:09.433Z,26.89
2022-08-19T11:27:09.433Z,27.08
2022-08-19T11:28:09.425Z,27.40
2022-08-19T11:29:09.407Z,27.79
2022-08-19T11:30:12.740Z,28.01
2022-08-19T11:31:09.393Z,28.37
2022-08-19T11:32:09.388Z,28.57
2022-08-19T11:33:09.391Z,29.04
2022-08-19T11:34:09.355Z,29.02
2022-08-19T11:35:09.345Z,28.94
2022-08-19T11:36:09.322Z,29.04
2022-08-19T11:37:09.308Z,28.49
2022-08-19T11:38:09.939Z,28.32
2022-08-19T11:39:09.342Z,28.34
2022-08-19T11:40:09.331Z,28.54
2022-08-19T11:41:09.275Z,28.64
2022-08-19T11:42:09.259Z,28.40
2022-08-19T11:43:09.252Z,28.34
2022-08-19T11:44:09.236Z,28.57
2022-08-19T11:45:09.257Z,28.89
2022-08-19T11:46:09.214Z,29.07
2022-08-19T11:47:09.448Z,29.34
2022-08-19T11:49:51.326Z,29.87
2022-08-19T11:50:51.320Z,30.24
2022-08-19T11:51:51.323Z,30.46
2022-08-19T11:52:51.292Z,30.73
2022-08-19T11:53:51.327Z,30.67
2022-08-19T11:54:51.276Z,30.71
2022-08-19T11:55:51.268Z,30.62
2022-08-19T11:56:51.272Z,30.05
2022-08-19T11:57:51.249Z,29.65
2022-08-19T11:58:51.234Z,29.58
2022-08-19T11:59:51.242Z,29.65
2022-08-19T12:00:51.215Z,29.58
2022-08-19T12:01:51.202Z,29.27
2022-08-19T12:02:51.217Z,29.27
2022-08-19T12:03:51.275Z,29.19
2022-08-19T12:04:51.208Z,29.03
2022-08-19T12:05:51.180Z,28.98
2022-08-19T12:06:51.157Z,29.02
2022-08-19T12:07:51.152Z,28.93
2022-08-19T12:08:51.163Z,28.90
2022-08-19T12:09:51.123Z,28.68
2022-08-19T12:10:51.151Z,28.56
2022-08-19T12:11:51.103Z,28.37
2022-08-19T12:12:58.607Z,28.07
2022-08-19T12:13:51.085Z,27.80
2022-08-19T12:14:51.069Z,27.75
2022-08-19T12:15:51.086Z,27.75
2022-08-19T12:16:52.478Z,27.83
2022-08-19T12:17:51.078Z,27.98
2022-08-19T12:18:51.033Z,28.30
2022-08-19T12:19:51.029Z,28.47
2022-08-19T12:20:51.008Z,28.56
2022-08-19T12:21:51.027Z,28.77
2022-08-19T12:22:50.989Z,29.02
2022-08-19T12:23:55.502Z,29.21
2022-08-19T12:24:50.964Z,28.91
2022-08-19T12:25:50.955Z,28.87
2022-08-19T12:26:52.858Z,28.90
2022-08-19T12:27:57.216Z,29.17
2022-08-19T12:28:50.941Z,29.28
2022-08-19T12:29:50.910Z,29.39
2022-08-19T12:30:50.900Z,29.55
2022-08-19T12:31:50.905Z,29.87
2022-08-19T12:32:50.897Z,30.13
2022-08-19T12:33:50.885Z,30.15
2022-08-19T12:34:50.867Z,30.20
2022-08-19T12:35:50.881Z,30.29
2022-08-19T12:36:50.851Z,30.08
2022-08-19T12:37:57.440Z,29.54
2022-08-19T12:38:50.834Z,29.27
2022-08-19T12:39:50.853Z,29.19
2022-08-19T12:40:50.800Z,29.09
2022-08-19T12:41:54.089Z,29.29
2022-08-19T12:42:50.811Z,29.63
2022-08-19T12:43:50.766Z,29.93
2022-08-19T12:44:50.753Z,30.21
2022-08-19T12:45:50.742Z,30.22
2022-08-19T12:46:50.731Z,30.32
2022-08-19T12:47:50.840Z,30.30
2022-08-19T12:48:55.207Z,30.40
2022-08-19T12:49:54.132Z,30.64
2022-08-19T12:50:50.750Z,30.82
2022-08-19T12:51:50.694Z,30.97
2022-08-19T12:52:50.670Z,31.15
2022-08-19T12:53:50.681Z,31.39
2022-08-19T12:54:53.885Z,31.42